Festivo — EAEQ — position and weather

sailwx.info

Track history (hours):
 
Tides and Currents Weather Stations Pressure Air Temp Water Temp Dewpoint Dewpoint Depression Visibility Wind Speed Wind Dir Waves Ship Positions

Festivo

Last reported at 2015-Jan-29 11:33 UTC. Time now 2015-Feb-01 08:43 UTC.
Position N 35°57' W 005°16'.

Length 136 m; draft 4.5 m.

Type: Cargo ship. MMSI: 225410000.

Date/timePositionNaut miles runAvg speedWind from/ knotsBaromVisibWave heightAir tempDewpointWater temp
2015-Jan-29 11:33N 35°57' W 005°16'4 4.4
2015-Jan-29 10:33N 35°54' W 005°19'0 0.0
2015-Jan-29 09:33N 35°54' W 005°19'0 0.0
2015-Jan-29 08:33N 35°54' W 005°19'1 1.2
2015-Jan-29 07:33N 35°55' W 005°18'5 0.1
2015-Jan-27 10:33N 35°58' W 005°13'7 6.6
2015-Jan-27 09:33N 35°54' W 005°19'0 0.0
2015-Jan-27 08:32N 35°54' W 005°19'0 0.0
2015-Jan-27 07:32N 35°54' W 005°19'0 0.0
2015-Jan-27 06:32N 35°54' W 005°19'1 0.8
2015-Jan-27 05:34N 35°54' W 005°19'  
2015-Jan-24 17:11N 35°56' W 005°13'5 8.0
2015-Jan-24 16:33N 35°54' W 005°19'1 0.6
2015-Jan-24 15:32N 35°54' W 005°19'0 0.0
2015-Jan-24 14:32N 35°54' W 005°19'0 0.0
2015-Jan-24 13:32N 35°54' W 005°19'0 0.0
2015-Jan-24 12:32N 35°54' W 005°19'0 0.0
2015-Jan-24 11:32N 35°54' W 005°19'0 0.0
2015-Jan-24 10:32N 35°54' W 005°19'0 0.0
2015-Jan-24 09:32N 35°54' W 005°19'0 0.3
2015-Jan-24 08:33N 35°54' W 005°19'3 3.4
2015-Jan-24 07:33N 35°56' W 005°16'  
2015-Jan-20 10:13N 36°00' W 005°11'812.1
2015-Jan-20 09:33N 35°54' W 005°18'1 1.0
2015-Jan-20 08:33N 35°54' W 005°19'0 0.0
2015-Jan-20 07:30N 35°54' W 005°19'0 0.0
2015-Jan-20 06:33N 35°54' W 005°19'1 1.4
2015-Jan-20 05:33N 35°55' W 005°19'7 6.9
2015-Jan-20 04:33N 35°59' W 005°12'  
Track history (hours):
 
Tides and Currents Weather Stations Pressure Air Temp Water Temp Dewpoint Dewpoint Depression Visibility Wind Speed Wind Dir Waves Ship Positions

Festivo

Last reported at 2015-Jan-29 11:33 UTC. Time now 2015-Feb-01 08:43 UTC.
Position N 35°57' W 005°16'.

Length 136 m; draft 4.5 m.

Type: Cargo ship. MMSI: 225410000.

Date/timePositionNaut miles runAvg speedWind from/ knotsBaromVisibWave heightAir tempDewpointWater temp
2015-Jan-29 11:33N 35°57' W 005°16'4 4.4
2015-Jan-29 10:33N 35°54' W 005°19'0 0.0
2015-Jan-29 09:33N 35°54' W 005°19'0 0.0
2015-Jan-29 08:33N 35°54' W 005°19'1 1.2
2015-Jan-29 07:33N 35°55' W 005°18'5 0.1
2015-Jan-27 10:33N 35°58' W 005°13'7 6.6
2015-Jan-27 09:33N 35°54' W 005°19'0 0.0
2015-Jan-27 08:32N 35°54' W 005°19'0 0.0
2015-Jan-27 07:32N 35°54' W 005°19'0 0.0
2015-Jan-27 06:32N 35°54' W 005°19'1 0.8
2015-Jan-27 05:34N 35°54' W 005°19'  
2015-Jan-24 17:11N 35°56' W 005°13'5 8.0
2015-Jan-24 16:33N 35°54' W 005°19'1 0.6
2015-Jan-24 15:32N 35°54' W 005°19'0 0.0
2015-Jan-24 14:32N 35°54' W 005°19'0 0.0
2015-Jan-24 13:32N 35°54' W 005°19'0 0.0
2015-Jan-24 12:32N 35°54' W 005°19'0 0.0
2015-Jan-24 11:32N 35°54' W 005°19'0 0.0
2015-Jan-24 10:32N 35°54' W 005°19'0 0.0
2015-Jan-24 09:32N 35°54' W 005°19'0 0.3
2015-Jan-24 08:33N 35°54' W 005°19'3 3.4
2015-Jan-24 07:33N 35°56' W 005°16'  
2015-Jan-20 10:13N 36°00' W 005°11'812.1
2015-Jan-20 09:33N 35°54' W 005°18'1 1.0
2015-Jan-20 08:33N 35°54' W 005°19'0 0.0
2015-Jan-20 07:30N 35°54' W 005°19'0 0.0
2015-Jan-20 06:33N 35°54' W 005°19'1 1.4
2015-Jan-20 05:33N 35°55' W 005°19'7 6.9
2015-Jan-20 04:33N 35°59' W 005°12'  

Dump ship's entire track history